createdAt,value
2023-03-22T00:06:48.092Z,9.5
2023-03-22T00:16:50.089Z,9.9
2023-03-22T00:26:52.427Z,10.1
2023-03-22T00:36:54.530Z,10.3
2023-03-22T00:46:56.422Z,10.5
2023-03-22T00:56:58.982Z,10.6
2023-03-22T01:07:01.084Z,10.5
2023-03-22T01:17:02.911Z,10.4
2023-03-22T01:27:05.505Z,10.6
2023-03-22T01:37:07.635Z,10.6
2023-03-22T01:47:09.426Z,10.6
2023-03-22T01:57:11.339Z,10.6
2023-03-22T02:07:13.518Z,10.6
2023-03-22T02:17:15.470Z,10.5
2023-03-22T02:27:17.496Z,10.7
2023-03-22T02:37:19.360Z,10.5
2023-03-22T02:47:21.794Z,10.4
2023-03-22T02:57:23.699Z,10.5
2023-03-22T03:07:25.575Z,10.3
2023-03-22T03:17:27.335Z,10.4
2023-03-22T03:27:29.711Z,10.5
2023-03-22T03:37:31.778Z,10.2
2023-03-22T03:47:33.704Z,9.9
2023-03-22T03:57:35.436Z,9.6
2023-03-22T04:07:37.614Z,9.2
2023-03-22T04:07:59.552Z,9.2
2023-03-22T04:17:47.061Z,9
2023-03-22T04:27:48.701Z,9
2023-03-22T04:47:53.246Z,8.7
2023-03-22T04:57:55.075Z,8.6
2023-03-22T05:07:57.604Z,8.6
2023-03-22T05:17:59.982Z,8.5
2023-03-22T05:28:02.564Z,8.5
2023-03-22T05:38:05.149Z,8.9
2023-03-22T05:48:07.234Z,9.4
2023-03-22T05:58:08.825Z,9.8
2023-03-22T06:08:11.065Z,10.3
2023-03-22T06:18:13.619Z,10.5
2023-03-22T06:28:16.050Z,11
2023-03-22T06:38:17.702Z,11.2
2023-03-22T06:48:19.456Z,11.4
2023-03-22T06:58:21.782Z,11.6
2023-03-22T07:08:24.222Z,11.7
2023-03-22T07:18:25.926Z,11.9
2023-03-22T07:28:28.525Z,12.1
2023-03-22T07:38:30.912Z,12.1
2023-03-22T07:48:32.709Z,12.7
2023-03-22T07:58:35.244Z,13.4
2023-03-22T08:08:37.595Z,13.3
2023-03-22T08:18:39.803Z,13.1
2023-03-22T08:28:41.475Z,12.8
2023-03-22T08:38:44.067Z,13.1
2023-03-22T08:48:46.296Z,13.1
2023-03-22T08:58:48.254Z,13.1
2023-03-22T09:08:50.627Z,13.1
2023-03-22T09:18:52.692Z,13.1
2023-03-22T09:28:54.440Z,13.5
2023-03-22T09:38:56.722Z,13.6
2023-03-22T09:48:59.311Z,13.9
2023-03-22T09:59:01.631Z,13.7
2023-03-22T10:09:03.421Z,13.6
2023-03-22T10:19:05.605Z,14.1
2023-03-22T10:39:09.989Z,13.7
2023-03-22T10:49:12.047Z,14
2023-03-22T10:59:13.711Z,14.5
2023-03-22T11:09:15.880Z,14.3
2023-03-22T11:19:18.159Z,14.4
2023-03-22T11:29:20.271Z,14.5
2023-03-22T11:39:22.453Z,14.4
2023-03-22T11:49:24.438Z,14.4
2023-03-22T11:59:26.629Z,14.1
2023-03-22T12:09:29.226Z,13.7
2023-03-22T12:19:31.430Z,13.5
2023-03-22T12:29:33.531Z,13.3
2023-03-22T12:39:35.826Z,13.3
2023-03-22T12:49:38.167Z,13.6
2023-03-22T12:59:40.332Z,13.8
2023-03-22T13:09:42.940Z,13.5
2023-03-22T13:29:47.250Z,13.3
2023-03-22T13:39:49.019Z,13.5
2023-03-22T13:49:50.790Z,13.5
2023-03-22T13:59:59.838Z,13.6
2023-03-22T14:09:54.568Z,13.9
2023-03-22T14:19:56.808Z,13.8
2023-03-22T15:00:05.494Z,13.4
2023-03-22T15:10:07.801Z,13.3
2023-03-22T15:20:09.797Z,13.3
2023-03-22T15:30:12.159Z,13.3
2023-03-22T17:50:43.213Z,13.3
2023-03-22T18:00:45.678Z,13.4
2023-03-22T18:10:47.882Z,13.4
2023-03-22T18:20:57.747Z,13.4
2023-03-22T18:51:02.343Z,13.2
2023-03-22T19:00:59.236Z,13.2
2023-03-22T19:21:11.716Z,13.1
2023-03-22T19:31:06.012Z,13.1
2023-03-22T19:41:35.805Z,13.1
2023-03-22T19:51:09.749Z,13.2
2023-03-22T20:01:12.024Z,13.2
2023-03-22T20:11:23.065Z,13.3
2023-03-22T20:21:16.227Z,13
2023-03-22T20:31:18.790Z,12.9
2023-03-22T20:51:23.587Z,12.9
2023-03-22T21:01:25.312Z,12.9
2023-03-22T21:11:27.925Z,12.9
2023-03-22T21:21:30.291Z,12.8
2023-03-22T21:31:32.225Z,12.8
2023-03-22T21:41:34.100Z,12.6
2023-03-22T21:51:36.308Z,12.5
2023-03-22T22:01:38.677Z,12.2
2023-03-22T22:11:41.274Z,11.9
2023-03-22T22:21:43.216Z,11.6
2023-03-22T22:31:45.146Z,11.5
2023-03-22T22:41:47.655Z,11.5
2023-03-22T22:51:49.546Z,11.6
2023-03-22T23:01:51.953Z,11.4
2023-03-22T23:11:54.232Z,11.2
2023-03-22T23:21:56.535Z,11.1
2023-03-22T23:31:58.615Z,11
2023-03-22T23:42:01.152Z,11
2023-03-22T23:52:03.594Z,11
